createdAt,value
2023-04-27T00:00:11.875Z,586.00
2023-04-27T00:01:11.681Z,588.00
2023-04-27T00:02:11.772Z,589.00
2023-04-27T00:03:11.891Z,586.00
2023-04-27T00:04:11.895Z,582.00
2023-04-27T00:05:12.003Z,583.00
2023-04-27T00:06:11.912Z,584.00
2023-04-27T00:07:11.895Z,582.00
2023-04-27T00:08:11.930Z,584.00
2023-04-27T00:09:12.236Z,585.00
2023-04-27T00:10:11.979Z,588.00
2023-04-27T00:11:12.006Z,590.00
2023-04-27T00:12:12.048Z,591.00
2023-04-27T00:13:12.109Z,590.00
2023-04-27T00:14:12.118Z,592.00
2023-04-27T00:15:12.152Z,590.00
2023-04-27T00:16:12.186Z,590.00
2023-04-27T00:17:12.212Z,589.00
2023-04-27T00:18:12.238Z,590.00
2023-04-27T00:19:12.485Z,589.00
2023-04-27T00:20:12.346Z,586.00
2023-04-27T00:21:12.338Z,583.00
2023-04-27T00:22:12.370Z,581.00
2023-04-27T00:23:12.414Z,582.00
2023-04-27T00:24:12.432Z,583.00
2023-04-27T00:25:12.613Z,585.00
2023-04-27T00:26:12.502Z,583.00
2023-04-27T00:27:12.551Z,583.00
2023-04-27T00:28:12.620Z,581.00
2023-04-27T00:29:12.824Z,582.00
2023-04-27T00:30:12.637Z,582.00
2023-04-27T00:31:12.663Z,582.00
2023-04-27T00:32:12.720Z,581.00
2023-04-27T00:33:12.749Z,580.00
2023-04-27T00:34:12.764Z,580.00
2023-04-27T00:35:12.813Z,580.00
2023-04-27T00:36:12.846Z,579.00
2023-04-27T00:37:12.862Z,577.00
2023-04-27T00:38:12.925Z,581.00
2023-04-27T00:39:13.155Z,582.00
2023-04-27T00:40:12.982Z,582.00
2023-04-27T00:41:13.018Z,583.00
2023-04-27T00:42:13.056Z,584.00
2023-04-27T00:43:13.076Z,584.00
2023-04-27T00:44:13.107Z,588.00
2023-04-27T00:45:13.183Z,587.00
2023-04-27T00:46:13.282Z,587.00
2023-04-27T00:47:13.236Z,588.00
2023-04-27T00:48:13.274Z,586.00
2023-04-27T00:49:13.480Z,585.00
2023-04-27T00:50:13.334Z,584.00
2023-04-27T00:51:13.417Z,584.00
2023-04-27T00:52:13.411Z,585.00
2023-04-27T00:53:13.425Z,584.00
2023-04-27T00:54:13.447Z,584.00
2023-04-27T00:55:13.476Z,582.00
2023-04-27T00:56:13.562Z,581.00
2023-04-27T00:57:13.556Z,579.00
2023-04-27T00:58:13.623Z,578.00
2023-04-27T00:59:13.842Z,579.00
2023-04-27T01:00:13.763Z,577.00
2023-04-27T01:01:13.770Z,576.00
2023-04-27T01:02:13.936Z,575.00
2023-04-27T01:03:14.005Z,577.00
2023-04-27T01:04:13.966Z,577.00
2023-04-27T01:05:13.855Z,576.00
2023-04-27T01:06:13.874Z,575.00
2023-04-27T01:07:13.913Z,573.00
2023-04-27T01:08:13.945Z,572.00
2023-04-27T01:09:14.321Z,572.00
2023-04-27T01:10:14.029Z,575.00
2023-04-27T01:11:14.048Z,577.00
2023-04-27T01:12:14.080Z,576.00
2023-04-27T01:13:14.132Z,575.00
2023-04-27T01:14:14.155Z,576.00
2023-04-27T01:15:14.230Z,578.00
2023-04-27T01:16:14.275Z,578.00
2023-04-27T01:17:14.369Z,579.00
2023-04-27T01:18:14.357Z,579.00
2023-04-27T01:19:14.706Z,579.00
2023-04-27T01:20:14.401Z,579.00
2023-04-27T01:21:14.460Z,575.00
2023-04-27T01:22:14.544Z,575.00
2023-04-27T01:23:16.773Z,575.00
2023-04-27T01:24:14.514Z,577.00
2023-04-27T01:25:14.576Z,577.00
2023-04-27T01:26:14.584Z,575.00
2023-04-27T01:27:14.482Z,576.00
2023-04-27T01:28:14.489Z,576.00
2023-04-27T01:29:14.761Z,576.00
2023-04-27T01:30:14.486Z,574.00
2023-04-27T01:31:14.546Z,571.00
2023-04-27T01:32:14.478Z,573.00
2023-04-27T01:33:14.486Z,574.00
2023-04-27T01:34:14.454Z,573.00
2023-04-27T01:35:14.489Z,573.00
2023-04-27T01:36:14.421Z,575.00
2023-04-27T01:37:14.463Z,575.00
2023-04-27T01:38:14.460Z,572.00
2023-04-27T01:39:14.699Z,570.00
2023-04-27T01:40:14.420Z,569.00
2023-04-27T01:41:14.408Z,569.00
2023-04-27T01:42:14.400Z,569.00
2023-04-27T01:43:14.386Z,568.00
2023-04-27T01:44:14.395Z,565.00
2023-04-27T01:45:14.417Z,564.00
2023-04-27T01:46:14.420Z,566.00
2023-04-27T01:47:14.381Z,566.00
2023-04-27T01:48:14.380Z,564.00
2023-04-27T01:49:14.552Z,566.00
2023-04-27T01:50:14.375Z,569.00
2023-04-27T01:51:14.389Z,569.00
2023-04-27T01:52:14.352Z,569.00
2023-04-27T01:53:14.350Z,568.00
2023-04-27T01:54:14.320Z,568.00
2023-04-27T01:55:14.352Z,568.00
2023-04-27T01:56:14.318Z,567.00
2023-04-27T01:57:14.335Z,567.00
2023-04-27T01:58:14.305Z,566.00
2023-04-27T01:59:14.525Z,568.00
2023-04-27T02:00:14.268Z,566.00
2023-04-27T02:01:14.317Z,566.00
2023-04-27T02:02:14.287Z,566.00
2023-04-27T02:03:14.369Z,566.00
2023-04-27T02:04:14.472Z,564.00
2023-04-27T02:05:14.254Z,562.00
2023-04-27T02:06:14.252Z,563.00
2023-04-27T02:07:14.233Z,564.00
2023-04-27T02:08:14.235Z,564.00
2023-04-27T02:09:14.424Z,564.00
2023-04-27T02:10:14.241Z,565.00
2023-04-27T02:11:14.221Z,565.00
2023-04-27T02:12:14.299Z,567.00
2023-04-27T02:13:14.321Z,567.00
2023-04-27T02:14:14.389Z,566.00
2023-04-27T02:15:14.417Z,564.00
2023-04-27T02:16:14.480Z,562.00
2023-04-27T02:17:14.490Z,563.00
2023-04-27T02:18:14.505Z,564.00
2023-04-27T02:19:14.718Z,562.00
2023-04-27T02:20:14.619Z,561.00
2023-04-27T02:21:14.642Z,561.00
2023-04-27T02:22:14.670Z,559.00
2023-04-27T02:23:14.716Z,557.00
2023-04-27T02:24:14.760Z,557.00
2023-04-27T02:25:14.851Z,554.00
2023-04-27T02:26:14.842Z,557.00
2023-04-27T02:27:14.879Z,559.00
2023-04-27T02:28:14.895Z,559.00
2023-04-27T02:29:15.882Z,559.00
2023-04-27T02:30:15.022Z,559.00
2023-04-27T02:31:15.087Z,559.00
2023-04-27T02:32:15.078Z,559.00
2023-04-27T02:33:15.145Z,558.00
2023-04-27T02:34:15.156Z,558.00
2023-04-27T02:35:15.201Z,560.00
2023-04-27T02:36:15.283Z,560.00
2023-04-27T02:37:15.319Z,560.00
2023-04-27T02:38:15.317Z,560.00
2023-04-27T02:39:15.615Z,559.00
2023-04-27T02:40:15.475Z,559.00
2023-04-27T02:41:15.457Z,559.00
2023-04-27T02:42:15.507Z,560.00
2023-04-27T02:43:15.550Z,556.00
2023-04-27T02:44:15.592Z,555.00
2023-04-27T02:45:15.657Z,554.00
2023-04-27T02:46:15.710Z,556.00
2023-04-27T02:47:15.765Z,557.00
2023-04-27T02:48:15.771Z,556.00
2023-04-27T02:49:16.131Z,557.00
2023-04-27T02:50:15.862Z,558.00
2023-04-27T02:51:15.917Z,557.00
2023-04-27T02:52:15.950Z,555.00
2023-04-27T02:53:15.984Z,554.00
2023-04-27T02:54:16.035Z,557.00
2023-04-27T02:55:23.146Z,559.00
2023-04-27T02:56:16.051Z,560.00
2023-04-27T02:57:16.051Z,561.00
2023-04-27T02:58:16.064Z,560.00
2023-04-27T02:59:16.281Z,562.00
2023-04-27T03:00:16.036Z,559.00
2023-04-27T03:01:16.060Z,561.00
2023-04-27T03:02:16.022Z,560.00
2023-04-27T03:03:16.142Z,560.00
2023-04-27T03:04:16.254Z,558.00
2023-04-27T03:05:16.019Z,558.00
2023-04-27T03:06:15.976Z,557.00
2023-04-27T03:07:15.979Z,555.00
2023-04-27T03:08:15.993Z,557.00
2023-04-27T03:09:16.451Z,558.00
2023-04-27T03:10:15.960Z,560.00
2023-04-27T03:11:15.968Z,563.00
2023-04-27T03:12:15.967Z,562.00
2023-04-27T03:13:15.958Z,562.00
2023-04-27T03:14:15.977Z,562.00
2023-04-27T03:15:15.945Z,561.00
2023-04-27T03:16:16.663Z,559.00
2023-04-27T03:17:15.909Z,558.00
2023-04-27T03:18:15.918Z,558.00
2023-04-27T03:19:16.089Z,556.00
2023-04-27T03:20:15.912Z,555.00
2023-04-27T03:21:15.890Z,556.00
2023-04-27T03:22:15.951Z,555.00
2023-04-27T03:23:15.930Z,553.00
2023-04-27T03:24:15.998Z,553.00
2023-04-27T03:25:16.048Z,552.00
2023-04-27T03:26:16.124Z,551.00
2023-04-27T03:27:16.145Z,549.00
2023-04-27T03:28:16.177Z,547.00
2023-04-27T03:29:16.278Z,548.00
2023-04-27T03:30:16.290Z,548.00
2023-04-27T03:31:16.375Z,549.00
2023-04-27T03:32:16.380Z,549.00
2023-04-27T03:33:16.555Z,548.00
2023-04-27T03:34:16.457Z,551.00
2023-04-27T03:35:16.498Z,550.00
2023-04-27T03:36:16.585Z,549.00
2023-04-27T03:37:16.589Z,548.00
2023-04-27T03:38:16.645Z,549.00
2023-04-27T03:39:16.736Z,549.00
2023-04-27T03:40:16.768Z,549.00
2023-04-27T03:41:16.770Z,548.00
2023-04-27T03:42:16.816Z,548.00
2023-04-27T03:43:16.861Z,546.00
2023-04-27T03:44:16.884Z,546.00
2023-04-27T03:45:16.951Z,547.00
2023-04-27T03:46:17.012Z,548.00
2023-04-27T03:47:17.041Z,549.00
2023-04-27T03:48:17.094Z,547.00
2023-04-27T03:49:17.126Z,547.00
2023-04-27T03:50:17.165Z,547.00
2023-04-27T03:51:17.200Z,548.00
2023-04-27T03:52:17.267Z,547.00
2023-04-27T03:53:17.301Z,549.00
2023-04-27T03:54:17.338Z,550.00
2023-04-27T03:55:17.408Z,549.00
2023-04-27T03:56:17.454Z,549.00
2023-04-27T03:57:17.483Z,550.00
2023-04-27T03:58:17.550Z,551.00
2023-04-27T03:59:17.586Z,551.00
2023-04-27T04:00:17.677Z,549.00
2023-04-27T04:01:17.658Z,545.00
2023-04-27T04:02:17.794Z,546.00
2023-04-27T04:03:18.050Z,549.00
2023-04-27T04:04:17.918Z,549.00
2023-04-27T04:05:17.988Z,548.00
2023-04-27T04:06:17.911Z,547.00
2023-04-27T04:07:17.959Z,548.00
2023-04-27T04:08:18.008Z,549.00
2023-04-27T04:09:18.050Z,550.00
2023-04-27T04:10:18.105Z,552.00
2023-04-27T04:11:18.157Z,553.00
2023-04-27T04:12:18.194Z,549.00
2023-04-27T04:13:18.279Z,549.00
2023-04-27T04:14:18.294Z,549.00
2023-04-27T04:15:18.331Z,550.00
2023-04-27T04:16:18.460Z,549.00
2023-04-27T04:17:18.497Z,547.00
2023-04-27T04:18:18.495Z,548.00
2023-04-27T04:19:19.586Z,547.00
2023-04-27T04:20:18.586Z,547.00
2023-04-27T04:21:18.509Z,548.00
2023-04-27T04:22:18.512Z,547.00
2023-04-27T04:23:18.505Z,548.00
2023-04-27T04:24:18.505Z,548.00
2023-04-27T04:25:18.538Z,547.00
2023-04-27T04:26:18.485Z,548.00
2023-04-27T04:27:18.510Z,549.00
2023-04-27T04:28:18.502Z,547.00
2023-04-27T04:29:18.462Z,545.00
2023-04-27T04:30:18.483Z,543.00
2023-04-27T04:31:18.542Z,544.00
2023-04-27T04:32:18.454Z,544.00
2023-04-27T04:33:18.455Z,544.00
2023-04-27T04:34:18.459Z,542.00
2023-04-27T04:35:18.417Z,538.00
2023-04-27T04:36:18.420Z,537.00
2023-04-27T04:37:18.438Z,538.00
2023-04-27T04:38:18.405Z,538.00
2023-04-27T04:39:18.394Z,540.00
2023-04-27T04:40:18.418Z,540.00
2023-04-27T04:41:18.389Z,541.00
2023-04-27T04:42:18.382Z,542.00
2023-04-27T04:43:18.442Z,544.00
2023-04-27T04:44:18.344Z,549.00
2023-04-27T04:45:18.348Z,550.00
2023-04-27T04:46:18.374Z,548.00
2023-04-27T04:47:18.333Z,549.00
2023-04-27T04:48:18.334Z,548.00
2023-04-27T04:49:18.353Z,545.00
2023-04-27T04:50:18.348Z,543.00
2023-04-27T04:51:18.357Z,543.00
2023-04-27T04:52:18.300Z,541.00
2023-04-27T04:53:18.302Z,540.00
2023-04-27T04:54:18.303Z,540.00
2023-04-27T04:55:18.283Z,541.00
2023-04-27T04:56:18.306Z,540.00
2023-04-27T04:57:18.265Z,540.00
2023-04-27T04:58:18.280Z,542.00
2023-04-27T04:59:18.252Z,542.00
2023-04-27T05:00:18.257Z,543.00
2023-04-27T05:01:18.301Z,543.00
2023-04-27T05:02:18.476Z,544.00
2023-04-27T05:03:18.428Z,545.00
2023-04-27T05:04:18.471Z,546.00
2023-04-27T05:05:18.393Z,547.00
2023-04-27T05:06:18.427Z,547.00
2023-04-27T05:07:22.112Z,548.00
2023-04-27T05:08:19.480Z,545.00
2023-04-27T05:09:18.438Z,547.00
2023-04-27T05:10:18.454Z,549.00
2023-04-27T05:11:18.431Z,549.00
2023-04-27T05:12:18.417Z,548.00
2023-04-27T05:13:18.438Z,546.00
2023-04-27T05:14:18.418Z,548.00
2023-04-27T05:15:18.417Z,550.00
2023-04-27T05:16:18.566Z,549.00
2023-04-27T05:17:18.412Z,549.00
2023-04-27T05:18:18.417Z,552.00
2023-04-27T05:19:18.450Z,551.00
2023-04-27T05:20:18.517Z,550.00
2023-04-27T05:21:18.551Z,550.00
2023-04-27T05:22:18.618Z,549.00
2023-04-27T05:23:18.624Z,548.00
2023-04-27T05:24:18.743Z,549.00
2023-04-27T05:25:18.842Z,548.00
2023-04-27T05:26:18.850Z,548.00
2023-04-27T05:27:18.847Z,548.00
2023-04-27T05:28:18.914Z,551.00
2023-04-27T05:29:18.941Z,550.00
2023-04-27T05:30:19.048Z,551.00
2023-04-27T05:31:19.104Z,551.00
2023-04-27T05:32:19.121Z,551.00
2023-04-27T05:33:19.134Z,549.00
2023-04-27T05:34:19.203Z,565.00
2023-04-27T05:35:19.268Z,591.00
2023-04-27T05:36:19.270Z,597.00
2023-04-27T05:37:19.321Z,620.00
2023-04-27T05:38:19.381Z,712.00
2023-04-27T05:39:19.411Z,734.00
2023-04-27T05:40:19.464Z,774.00
2023-04-27T05:41:19.493Z,814.00
2023-04-27T05:42:20.221Z,830.00
2023-04-27T05:43:19.738Z,929.00
2023-04-27T05:44:19.630Z,942.00
2023-04-27T05:45:19.643Z,931.00
2023-04-27T05:46:19.873Z,949.00
2023-04-27T05:47:19.686Z,972.00
2023-04-27T05:48:19.698Z,987.00
2023-04-27T05:49:19.769Z,1051.00
2023-04-27T05:50:19.765Z,1064.00
2023-04-27T05:51:19.771Z,1085.00
2023-04-27T05:52:19.794Z,1138.00
2023-04-27T05:53:20.231Z,1163.00
2023-04-27T05:54:19.831Z,1262.00
2023-04-27T05:55:19.848Z,1260.00
2023-04-27T05:56:19.931Z,1270.00
2023-04-27T05:57:19.858Z,1317.00
2023-04-27T05:58:19.890Z,1339.00
2023-04-27T05:59:19.882Z,1345.00
2023-04-27T06:00:20.296Z,1364.00
2023-04-27T06:01:19.905Z,1382.00
2023-04-27T06:02:20.048Z,1443.00
2023-04-27T06:03:19.977Z,1466.00
2023-04-27T06:04:20.047Z,1493.00
2023-04-27T06:05:19.969Z,1528.00
2023-04-27T06:06:19.946Z,1553.00
2023-04-27T06:07:19.869Z,1584.00
2023-04-27T06:08:20.790Z,1619.00
2023-04-27T06:09:19.909Z,1651.00
2023-04-27T06:10:19.925Z,1688.00
2023-04-27T06:11:19.939Z,1717.00
2023-04-27T06:12:19.954Z,1745.00
2023-04-27T06:13:19.993Z,1782.00
2023-04-27T06:14:20.123Z,1806.00
2023-04-27T06:15:20.770Z,1836.00
2023-04-27T06:16:20.120Z,1887.00
2023-04-27T06:17:20.112Z,1917.00
2023-04-27T06:18:20.105Z,1934.00
2023-04-27T06:19:20.209Z,1951.00
2023-04-27T06:20:20.310Z,1993.00
2023-04-27T06:21:20.273Z,2018.00
2023-04-27T06:22:20.308Z,2040.00
2023-04-27T06:23:20.351Z,2063.00
2023-04-27T06:24:20.655Z,2095.00
2023-04-27T06:25:20.567Z,2113.00
2023-04-27T06:26:20.585Z,2134.00
2023-04-27T06:27:20.820Z,2162.00
2023-04-27T06:28:20.671Z,2186.00
2023-04-27T06:29:20.755Z,2208.00
2023-04-27T06:30:20.882Z,2237.00
2023-04-27T06:31:20.935Z,2273.00
2023-04-27T06:32:20.897Z,2294.00
2023-04-27T06:33:20.960Z,2313.00
2023-04-27T06:34:21.000Z,2335.00
2023-04-27T06:35:21.080Z,2356.00
2023-04-27T06:36:21.134Z,2404.00
2023-04-27T06:37:21.211Z,2423.00
2023-04-27T06:38:21.273Z,2398.00
2023-04-27T06:39:21.280Z,2411.00
2023-04-27T06:40:21.356Z,2410.00
2023-04-27T06:41:21.397Z,2399.00
2023-04-27T06:42:21.443Z,2386.00
2023-04-27T06:43:21.771Z,2362.00
2023-04-27T06:44:21.550Z,2345.00
2023-04-27T06:45:21.594Z,2338.00
2023-04-27T06:46:21.704Z,2333.00
2023-04-27T06:47:21.738Z,2325.00
2023-04-27T06:48:21.860Z,2317.00
2023-04-27T06:49:21.902Z,2311.00
2023-04-27T06:50:21.958Z,2305.00
2023-04-27T06:51:22.007Z,2294.00
2023-04-27T06:52:22.105Z,2278.00
2023-04-27T06:53:22.140Z,2276.00
2023-04-27T06:54:22.201Z,2277.00
2023-04-27T06:55:22.226Z,2274.00
2023-04-27T06:56:22.302Z,2267.00
2023-04-27T06:57:22.387Z,2259.00
2023-04-27T06:58:22.404Z,2253.00
2023-04-27T06:59:22.473Z,2249.00
2023-04-27T07:00:22.516Z,2243.00
2023-04-27T07:01:22.659Z,2238.00
2023-04-27T07:02:24.925Z,2227.00
2023-04-27T07:03:22.757Z,2219.00
2023-04-27T07:04:22.906Z,2207.00
2023-04-27T07:05:22.656Z,2196.00
2023-04-27T07:06:22.612Z,2201.00
2023-04-27T07:07:22.633Z,2199.00
2023-04-27T07:08:22.614Z,2197.00
2023-04-27T07:09:27.483Z,2192.00
2023-04-27T07:10:23.609Z,2180.00
2023-04-27T07:11:22.585Z,2174.00
2023-04-27T07:12:22.583Z,2169.00
2023-04-27T07:13:22.583Z,2163.00
2023-04-27T07:14:22.552Z,2157.00
2023-04-27T07:15:22.602Z,2148.00
2023-04-27T07:16:22.578Z,2138.00
2023-04-27T07:17:22.615Z,2132.00
2023-04-27T07:18:22.789Z,2129.00
2023-04-27T07:19:22.534Z,2129.00
2023-04-27T07:20:22.539Z,2125.00
2023-04-27T07:21:22.579Z,2123.00
2023-04-27T07:22:22.540Z,2118.00
2023-04-27T07:23:22.614Z,2112.00
2023-04-27T07:24:22.585Z,2104.00
2023-04-27T07:25:22.680Z,2103.00
2023-04-27T07:26:22.754Z,2098.00
2023-04-27T07:27:22.681Z,2093.00
2023-04-27T07:28:22.713Z,2088.00
2023-04-27T07:29:27.187Z,2084.00
2023-04-27T07:30:22.737Z,2081.00
2023-04-27T07:31:22.731Z,2077.00
2023-04-27T07:32:22.862Z,2074.00
2023-04-27T07:33:22.753Z,2075.00
2023-04-27T07:34:22.730Z,2137.00
2023-04-27T07:35:22.674Z,2162.00
2023-04-27T07:36:22.693Z,2173.00
2023-04-27T07:37:22.693Z,2174.00
2023-04-27T07:38:22.787Z,2175.00
2023-04-27T07:39:24.295Z,2179.00
2023-04-27T07:40:22.644Z,2133.00
2023-04-27T07:41:22.857Z,2028.00
2023-04-27T07:42:22.743Z,1927.00
2023-04-27T07:43:22.811Z,1926.00
2023-04-27T07:44:22.918Z,1914.00
2023-04-27T07:45:23.028Z,1922.00
2023-04-27T07:46:23.899Z,1931.00
2023-04-27T07:47:23.055Z,1983.00
2023-04-27T07:48:23.355Z,2002.00
2023-04-27T07:49:23.211Z,2010.00
2023-04-27T07:50:23.263Z,2012.00
2023-04-27T07:51:23.803Z,2008.00
2023-04-27T07:52:23.362Z,1979.00
2023-04-27T07:53:23.408Z,1964.00
2023-04-27T07:54:23.482Z,1964.00
2023-04-27T07:55:23.604Z,1964.00
2023-04-27T07:56:23.760Z,1946.00
2023-04-27T07:57:23.666Z,1932.00
2023-04-27T07:58:23.792Z,1922.00
2023-04-27T07:59:23.831Z,1926.00
2023-04-27T08:00:23.978Z,1922.00
2023-04-27T08:01:23.898Z,1914.00
2023-04-27T08:02:24.107Z,1912.00
2023-04-27T08:03:24.550Z,1907.00
2023-04-27T08:04:24.319Z,1892.00
2023-04-27T08:05:24.619Z,1838.00
2023-04-27T08:06:24.853Z,1845.00
2023-04-27T08:07:24.290Z,1852.00
2023-04-27T08:08:24.353Z,1860.00
2023-04-27T08:09:24.396Z,1859.00
2023-04-27T08:10:24.478Z,1861.00
2023-04-27T08:11:24.529Z,1867.00
2023-04-27T08:12:24.528Z,1866.00
2023-04-27T08:13:25.555Z,1852.00
2023-04-27T08:14:24.643Z,1837.00
2023-04-27T08:15:24.698Z,1839.00
2023-04-27T08:16:24.948Z,1837.00
2023-04-27T08:17:24.822Z,1832.00
2023-04-27T08:18:24.865Z,1831.00
2023-04-27T08:19:24.914Z,1826.00
2023-04-27T08:20:24.977Z,1819.00
2023-04-27T08:21:25.103Z,1827.00
2023-04-27T08:22:25.080Z,1849.00
2023-04-27T08:23:25.199Z,1863.00
2023-04-27T08:24:25.162Z,1910.00
2023-04-27T08:25:25.224Z,1941.00
2023-04-27T08:26:26.409Z,2059.00
2023-04-27T08:27:25.357Z,2064.00
2023-04-27T08:28:25.396Z,2081.00
2023-04-27T08:29:28.585Z,2091.00
2023-04-27T08:30:25.484Z,2107.00
2023-04-27T08:31:25.842Z,2141.00
2023-04-27T08:32:25.429Z,2035.00
2023-04-27T08:33:25.404Z,2059.00
2023-04-27T08:34:25.406Z,2044.00
2023-04-27T08:35:25.374Z,2028.00
2023-04-27T08:36:25.368Z,1961.00
2023-04-27T08:37:25.471Z,1884.00
2023-04-27T08:38:25.734Z,1840.00
2023-04-27T08:39:25.334Z,1826.00
2023-04-27T08:40:25.345Z,1773.00
2023-04-27T08:41:25.386Z,1773.00
2023-04-27T08:42:25.402Z,1609.00
2023-04-27T08:43:25.320Z,1547.00
2023-04-27T08:44:25.310Z,1559.00
2023-04-27T08:45:25.298Z,1607.00
2023-04-27T08:46:25.364Z,1624.00
2023-04-27T08:47:35.133Z,1619.00
2023-04-27T08:48:26.335Z,1614.00
2023-04-27T08:49:25.271Z,1611.00
2023-04-27T08:50:25.307Z,1614.00
2023-04-27T08:51:25.273Z,1611.00
2023-04-27T08:52:25.254Z,1610.00
2023-04-27T08:53:25.247Z,1606.00
2023-04-27T08:54:25.235Z,1604.00
2023-04-27T08:55:25.260Z,1608.00
2023-04-27T08:56:25.307Z,1604.00
2023-04-27T08:57:25.321Z,1603.00
2023-04-27T08:58:25.342Z,1600.00
2023-04-27T08:59:25.438Z,1598.00
2023-04-27T09:00:25.472Z,1599.00
2023-04-27T09:01:25.540Z,1596.00
2023-04-27T09:02:25.732Z,1595.00
2023-04-27T09:03:25.788Z,1595.00
2023-04-27T09:04:25.778Z,1592.00
2023-04-27T09:05:25.834Z,1590.00
2023-04-27T09:06:25.876Z,1590.00
2023-04-27T09:07:27.988Z,1588.00
2023-04-27T09:08:25.835Z,1583.00
2023-04-27T09:09:25.832Z,1581.00
2023-04-27T09:10:25.853Z,1575.00
2023-04-27T09:11:25.830Z,1575.00
2023-04-27T09:12:25.799Z,1574.00
2023-04-27T09:13:25.791Z,1570.00
2023-04-27T09:14:25.796Z,1567.00
2023-04-27T09:15:25.808Z,1564.00
2023-04-27T09:16:25.828Z,1561.00
2023-04-27T09:17:25.799Z,1559.00
2023-04-27T09:18:25.782Z,1554.00
2023-04-27T09:19:25.752Z,1548.00
2023-04-27T09:20:25.735Z,1546.00
2023-04-27T09:21:25.739Z,1542.00
2023-04-27T09:22:25.714Z,1543.00
2023-04-27T09:23:25.726Z,1542.00
2023-04-27T09:24:25.714Z,1542.00
2023-04-27T09:25:25.723Z,1539.00
2023-04-27T09:26:25.731Z,1621.00
2023-04-27T09:27:25.754Z,1640.00
2023-04-27T09:28:25.679Z,1641.00
2023-04-27T09:29:25.691Z,1698.00
2023-04-27T09:30:25.656Z,1610.00
2023-04-27T09:31:25.678Z,1569.00
2023-04-27T09:32:25.691Z,1558.00
2023-04-27T09:33:25.654Z,1488.00
2023-04-27T09:34:25.660Z,1477.00
2023-04-27T09:35:25.644Z,1299.00
2023-04-27T09:36:25.633Z,1303.00
2023-04-27T09:37:25.632Z,1308.00
2023-04-27T09:38:26.305Z,1308.00
2023-04-27T09:39:25.658Z,1298.00
2023-04-27T09:40:25.603Z,1338.00
2023-04-27T09:41:25.600Z,1367.00
2023-04-27T09:42:25.596Z,1369.00
2023-04-27T09:43:25.699Z,1369.00
2023-04-27T09:44:25.684Z,1374.00
2023-04-27T09:45:25.841Z,1275.00
2023-04-27T09:46:25.593Z,1255.00
2023-04-27T09:47:25.633Z,1232.00
2023-04-27T09:48:25.794Z,1169.00
2023-04-27T09:49:25.692Z,1170.00
2023-04-27T09:50:25.723Z,1173.00
2023-04-27T09:51:25.828Z,1246.00
2023-04-27T09:52:26.033Z,1253.00
2023-04-27T09:53:25.920Z,1145.00
2023-04-27T09:54:26.069Z,1153.00
2023-04-27T09:55:26.042Z,1159.00
2023-04-27T09:56:26.088Z,1192.00
2023-04-27T09:57:26.163Z,1187.00
2023-04-27T09:58:26.204Z,1180.00
2023-04-27T09:59:26.273Z,1184.00
2023-04-27T10:00:26.328Z,1207.00
2023-04-27T10:01:26.412Z,1223.00
2023-04-27T10:02:26.504Z,1204.00
2023-04-27T10:03:26.562Z,1203.00
2023-04-27T10:04:26.672Z,1201.00
2023-04-27T10:05:26.615Z,1212.00
2023-04-27T10:06:26.642Z,1211.00
2023-04-27T10:07:26.677Z,1184.00
2023-04-27T10:08:26.733Z,1191.00
2023-04-27T10:09:26.824Z,1196.00
2023-04-27T10:10:26.825Z,1202.00
2023-04-27T10:11:26.954Z,1205.00
2023-04-27T10:12:26.962Z,1211.00
2023-04-27T10:13:26.978Z,1214.00
2023-04-27T10:14:27.050Z,1213.00
2023-04-27T10:15:27.054Z,1206.00
2023-04-27T10:16:27.168Z,1196.00
2023-04-27T10:17:27.231Z,1177.00
2023-04-27T10:18:27.317Z,1195.00
2023-04-27T10:19:27.257Z,1220.00
2023-04-27T10:20:27.261Z,1239.00
2023-04-27T10:21:27.363Z,1257.00
2023-04-27T10:22:27.337Z,1277.00
2023-04-27T10:23:29.318Z,1305.00
2023-04-27T10:24:27.427Z,1374.00
2023-04-27T10:25:27.490Z,1399.00
2023-04-27T10:26:27.533Z,1418.00
2023-04-27T10:27:27.515Z,1224.00
2023-04-27T10:28:27.552Z,1286.00
2023-04-27T10:29:27.829Z,1348.00
2023-04-27T10:30:28.336Z,1325.00
2023-04-27T10:31:27.748Z,1287.00
2023-04-27T10:32:27.847Z,1282.00
2023-04-27T10:33:28.326Z,1289.00
2023-04-27T10:34:28.602Z,1288.00
2023-04-27T10:35:27.842Z,1280.00
2023-04-27T10:36:27.930Z,1286.00
2023-04-27T10:37:27.934Z,1326.00
2023-04-27T10:38:27.947Z,1319.00
2023-04-27T10:39:43.753Z,1322.00
2023-04-27T10:40:29.011Z,1339.00
2023-04-27T10:41:28.364Z,1346.00
2023-04-27T10:42:28.016Z,1355.00
2023-04-27T10:43:28.059Z,1356.00
2023-04-27T10:44:27.967Z,1365.00
2023-04-27T10:45:31.119Z,1370.00
2023-04-27T10:46:28.062Z,1375.00
2023-04-27T10:47:27.958Z,1385.00
2023-04-27T10:48:27.939Z,1389.00
2023-04-27T10:49:27.990Z,1396.00
2023-04-27T10:50:27.929Z,1393.00
2023-04-27T10:51:27.995Z,1395.00
2023-04-27T10:52:27.961Z,1396.00
2023-04-27T10:53:27.919Z,1398.00
2023-04-27T10:54:27.883Z,1401.00
2023-04-27T10:55:27.960Z,1397.00
2023-04-27T10:56:27.938Z,1401.00
2023-04-27T10:57:27.918Z,1403.00
2023-04-27T10:58:37.777Z,1406.00
2023-04-27T10:59:28.857Z,1404.00
2023-04-27T11:00:27.861Z,1406.00
2023-04-27T11:01:27.966Z,1415.00
2023-04-27T11:02:27.958Z,1429.00
2023-04-27T11:03:27.900Z,1433.00
2023-04-27T11:04:27.834Z,1437.00
2023-04-27T11:05:27.917Z,1443.00
2023-04-27T11:06:27.898Z,1436.00
2023-04-27T11:07:27.897Z,1430.00
2023-04-27T11:08:27.821Z,1435.00
2023-04-27T11:09:27.843Z,1444.00
2023-04-27T11:10:27.788Z,1448.00
2023-04-27T11:11:27.816Z,1450.00
2023-04-27T11:12:27.770Z,1455.00
2023-04-27T11:13:27.900Z,1465.00
2023-04-27T11:14:27.796Z,1469.00
2023-04-27T11:15:27.767Z,1465.00
2023-04-27T11:16:28.059Z,1482.00
2023-04-27T11:17:27.946Z,1494.00
2023-04-27T11:18:27.978Z,1499.00
2023-04-27T11:19:27.875Z,1496.00
2023-04-27T11:20:27.910Z,1498.00
2023-04-27T11:21:28.369Z,1498.00
2023-04-27T11:22:28.055Z,1496.00
2023-04-27T11:23:27.993Z,1496.00
2023-04-27T11:24:28.387Z,1492.00
2023-04-27T11:25:28.059Z,1490.00
2023-04-27T11:26:28.376Z,1481.00
2023-04-27T11:27:28.090Z,1474.00
2023-04-27T11:28:28.159Z,1471.00
2023-04-27T11:29:28.383Z,1466.00
2023-04-27T11:30:28.203Z,1459.00
2023-04-27T11:31:28.423Z,1459.00
2023-04-27T11:32:28.290Z,1457.00
2023-04-27T11:33:28.307Z,1459.00
2023-04-27T11:34:28.322Z,1454.00
2023-04-27T11:35:28.411Z,1451.00
2023-04-27T11:36:28.406Z,1448.00
2023-04-27T11:37:28.429Z,1447.00
2023-04-27T11:38:28.483Z,1448.00
2023-04-27T11:39:28.653Z,1445.00
2023-04-27T11:40:28.593Z,1439.00
2023-04-27T11:41:28.547Z,1438.00
2023-04-27T11:42:28.754Z,1439.00
2023-04-27T11:43:28.632Z,1437.00
2023-04-27T11:44:28.663Z,1435.00
2023-04-27T11:45:28.679Z,1433.00
2023-04-27T11:46:28.727Z,1434.00
2023-04-27T11:47:28.900Z,1428.00
2023-04-27T11:48:28.808Z,1423.00
2023-04-27T11:49:28.799Z,1417.00
2023-04-27T11:50:28.871Z,1416.00
2023-04-27T11:51:28.849Z,1417.00
2023-04-27T11:52:28.918Z,1414.00
2023-04-27T11:53:28.941Z,1411.00
2023-04-27T11:54:28.999Z,1408.00
2023-04-27T11:55:29.069Z,1403.00
2023-04-27T11:56:29.048Z,1403.00
2023-04-27T11:57:29.125Z,1401.00
2023-04-27T11:58:29.129Z,1396.00
2023-04-27T11:59:29.193Z,1391.00
2023-04-27T12:00:29.175Z,1392.00
2023-04-27T12:01:37.589Z,1393.00
2023-04-27T12:02:30.355Z,1390.00
2023-04-27T12:03:29.441Z,1388.00
2023-04-27T12:04:29.502Z,1383.00
2023-04-27T12:05:29.310Z,1380.00
2023-04-27T12:06:33.274Z,1377.00
2023-04-27T12:07:29.192Z,1374.00
2023-04-27T12:08:29.178Z,1374.00
2023-04-27T12:09:29.164Z,1373.00
2023-04-27T12:10:29.171Z,1373.00
2023-04-27T12:11:29.156Z,1372.00
2023-04-27T12:12:29.157Z,1373.00
2023-04-27T12:13:29.152Z,1368.00
2023-04-27T12:14:29.328Z,1366.00
2023-04-27T12:15:29.167Z,1363.00
2023-04-27T12:16:29.185Z,1363.00